• Join FlightAware (Why Join?)
  • Login
  • US Flag 
11:34AM EDT


 

Airport Tracker/Info


-or-


 

Live Flight TrackerFlight Track Log ✈ N66BS ✈ 21-Apr-2013 ✈ KMFE - MMAN / NTR

Flight Track Log - Related Links

Times and Time Zones

All times are in EDT time to prevent confusion due to time zone crossing. See the N66BS flight status page for this flight to view local times or setup timezone preferences in your user account.

Time Position Orientation Groundspeed Altitude Reporting Facility
EDT Latitude Longitude Course Direction KTS MPH feet Rate Location/Type
09:15PM 26.1411 -98.2244 261° West 68 78 16,000  Level Houston Center
09:16PM 26.0967 -98.2353 192° South 145 167 16,000  Level Houston Center
09:17PM 26.0706 -98.2753 234° Southwest 161 185 16,000  Level Houston Center
09:18PM 26.0422 -98.3181 234° Southwest 169 194 16,000  Level Houston Center
09:19PM 26.0122 -98.3650 235° Southwest 173 199 16,000  Level Houston Center
09:20PM 25.9901 -98.3859 261° West  Level FlightAware Approximate
09:20PM 25.9872 -98.4081 237° Southwest 168 193 16,000  Level Houston Center
09:21PM 25.9794 -98.4608 261° West 172 198 16,000  Level Houston Center
09:22PM 25.9767 -98.5131 267° West 170 196 16,000  Level Houston Center
09:23PM 25.9664 -98.5661 258° West 164 189 16,000  Level Houston Center
09:24PM 25.9622 -98.6167 265° West 163 188 16,000  Level Houston Center
09:25PM 25.9556 -98.6692 262° West 170 196 16,000  Level Houston Center
09:26PM 25.9472 -98.7214 260° West 172 198 16,000  Level Houston Center
09:27PM 25.9389 -98.7867 262° West 202 232 16,000  Level Houston Center
09:28PM 25.9372 -98.8375 268° West 204 235 16,000  Level Houston Center
09:29PM 25.9269 -98.9142 262° West 206 237 16,000  Level Houston Center
09:30PM 25.9186 -98.9797 262° West 209 241 16,000  Level Houston Center
09:31PM 25.9111 -99.0431 263° West 210 242 16,000  Level Houston Center
09:32PM 25.9028 -99.1064 262° West 208 239 16,000  Level Houston Center
09:33PM 25.8944 -99.1700 262° West 209 241 16,000  Level Houston Center
09:34PM 25.8872 -99.2350 263° West 209 241 16,000  Level Houston Center
09:35PM 25.8786 -99.2933 261° West 206 237 16,000  Level Houston Center
09:36PM 25.8694 -99.3564 261° West 204 235 16,000  Level Houston Center
09:37PM 25.8628 -99.4192 263° West 204 235 16,000  Level Houston Center
09:38PM 25.8539 -99.4822 261° West 205 236 16,000  Level Houston Center
09:39PM 25.8444 -99.5581 262° West 206 237 16,000  Level Houston Center
09:40PM 25.8356 -99.6242 262° West 209 241 16,000  Level Houston Center
09:41PM 25.8267 -99.6922 262° West 214 246 16,000  Level Houston Center
09:42PM 25.8178 -99.7608 262° West 219 252 16,000  Level Houston Center
09:43PM 25.8072 -99.8319 261° West 224 258 16,000  Level Houston Center
09:44PM 25.8003 -99.9039 264° West 228 262 16,000  Level Houston Center
09:45PM 25.8261 -99.9636 296° West 220 253 16,000  Level Houston Center
09:46PM 25.8531 -100.0200 298° West 218 251 16,000  Level Houston Center